Time;durP1;ratioP1;P1;durP2;ratioP2;P2;SDS_P1;SDS_P2;PMS_P1;PMS_P2;Temp;Humidity;BMP_temperature;BMP_pressure;BME280_temperature;BME280_humidity;BME280_pressure;Samples;Min_cycle;Max_cycle;Signal;HPM_P1;HPM_P2
2022/01/12 00:01:21;;;;;;;11.80;5.40;;;-13.40;99.90;;;;;;5061910;28;20463;-85
2022/01/12 00:03:49;;;;;;;11.30;5.00;;;-13.40;99.90;;;;;;5068444;28;20400;-84
2022/01/12 00:06:16;;;;;;;11.10;5.47;;;-13.50;99.90;;;;;;5068470;28;20408;-84
2022/01/12 00:08:46;;;;;;;12.43;5.50;;;-13.50;99.90;;;;;;5068361;28;20392;-84
2022/01/12 00:11:14;;;;;;;11.63;5.23;;;-13.60;99.90;;;;;;5067856;28;20395;-83
2022/01/12 00:13:41;;;;;;;10.52;5.25;;;-13.60;99.90;;;;;;5067988;28;20403;-83
2022/01/12 00:16:09;;;;;;;11.75;5.25;;;-13.60;99.90;;;;;;5067924;28;20446;-83
2022/01/12 00:18:36;;;;;;;9.27;4.88;;;-13.70;99.90;;;;;;5061046;28;20402;-84
2022/01/12 00:21:04;;;;;;;9.80;4.85;;;-13.70;99.90;;;;;;5051470;28;20388;-84
2022/01/12 00:23:33;;;;;;;8.88;4.85;;;-13.60;99.90;;;;;;5052322;28;20406;-84
2022/01/12 00:26:13;;;;;;;10.80;4.50;;;-13.60;99.90;;;;;;5051268;28;20430;-85
2022/01/12 00:34:21;;;;;;;8.80;4.57;;;-13.50;99.90;;;;;;5050798;28;20396;-85
2022/01/12 00:36:49;;;;;;;8.90;4.32;;;-13.50;99.90;;;;;;5051089;28;20488;-86
2022/01/12 00:39:16;;;;;;;11.82;5.22;;;-13.50;99.90;;;;;;5051301;28;20416;-84
2022/01/12 00:41:44;;;;;;;14.32;6.30;;;-13.60;99.90;;;;;;5051142;28;20438;-87
2022/01/12 00:44:22;;;;;;;11.20;5.57;;;-13.70;99.90;;;;;;5051281;28;20454;-86
2022/01/12 00:46:51;;;;;;;14.77;6.25;;;-13.70;99.90;;;;;;5051457;28;20433;-86
2022/01/12 00:49:21;;;;;;;12.13;5.70;;;-13.70;99.90;;;;;;5051172;28;20384;-87
2022/01/12 00:51:54;;;;;;;15.73;7.35;;;-13.70;99.90;;;;;;5051182;28;20877;-87
2022/01/12 00:54:25;;;;;;;15.53;6.67;;;-13.80;99.90;;;;;;5051251;28;20388;-87
2022/01/12 00:56:52;;;;;;;16.85;7.53;;;-13.80;99.90;;;;;;5051028;28;20387;-88
2022/01/12 00:59:20;;;;;;;17.90;8.07;;;-13.80;99.90;;;;;;5050951;28;20394;-86
2022/01/12 01:01:53;;;;;;;18.33;7.13;;;-13.80;99.90;;;;;;5051070;28;20396;-87
2022/01/12 01:04:21;;;;;;;15.50;6.43;;;-13.90;99.90;;;;;;5034531;28;20379;-88
2022/01/12 01:06:50;;;;;;;17.83;6.63;;;-14.00;99.90;;;;;;5050944;28;20404;-86
2022/01/12 01:09:18;;;;;;;12.30;5.32;;;-14.00;99.90;;;;;;5051019;28;20870;-85
2022/01/12 01:11:45;;;;;;;11.07;5.53;;;-14.10;99.90;;;;;;5050741;28;20918;-84
2022/01/12 01:14:20;;;;;;;10.85;4.70;;;-14.10;99.90;;;;;;5050879;28;20384;-86
2022/01/12 01:28:03;;;;;;;10.65;4.65;;;-14.30;99.90;;;;;;5050599;28;20395;-85
2022/01/12 01:30:32;;;;;;;11.68;5.35;;;-14.30;99.90;;;;;;5063822;28;20434;-85
2022/01/12 01:33:07;;;;;;;11.32;5.43;;;-14.40;99.90;;;;;;5034574;28;20878;-85
2022/01/12 01:35:37;;;;;;;10.27;4.85;;;-14.40;99.90;;;;;;5050730;28;20793;-85
2022/01/12 01:38:06;;;;;;;11.02;4.75;;;-14.40;99.90;;;;;;5050637;28;20484;-86
2022/01/12 01:40:37;;;;;;;11.13;5.00;;;-14.50;99.90;;;;;;5050572;28;20913;-87
2022/01/12 01:53:59;;;;;;;11.02;5.22;;;-14.50;99.90;;;;;;5054431;28;20482;-88
2022/01/12 01:56:27;;;;;;;10.52;5.13;;;-14.50;99.90;;;;;;5054422;28;20411;-88
2022/01/12 01:58:56;;;;;;;11.65;5.28;;;-14.50;99.90;;;;;;5037932;28;20426;-87
2022/01/12 02:01:26;;;;;;;11.48;5.20;;;-14.60;99.90;;;;;;5054450;28;20437;-86
2022/01/12 02:04:02;;;;;;;8.30;4.30;;;-14.80;99.90;;;;;;5055408;28;20407;-85
2022/01/12 02:06:32;;;;;;;11.40;4.88;;;-15.10;99.90;;;;;;5054130;28;20399;-85
2022/01/12 02:09:01;;;;;;;10.10;4.95;;;-15.00;99.90;;;;;;5054383;28;20400;-85
2022/01/12 02:11:52;;;;;;;9.82;4.72;;;-14.80;99.90;;;;;;5054169;28;20387;-86
2022/01/12 02:14:25;;;;;;;11.13;5.38;;;-15.00;99.90;;;;;;5054121;28;20882;-87
2022/01/12 02:16:58;;;;;;;12.60;5.47;;;-14.80;99.90;;;;;;5054122;28;20403;-85
2022/01/12 02:19:53;;;;;;;13.38;5.20;;;-14.70;99.90;;;;;;5053838;28;20400;-86
2022/01/12 02:36:25;;;;;;;13.13;6.13;;;-14.60;99.90;;;;;;5070304;28;20478;-85
2022/01/12 02:41:40;;;;;;;16.50;7.90;;;-14.60;99.90;;;;;;5070107;28;20460;-86
2022/01/12 02:55:08;;;;;;;17.17;7.80;;;-14.40;99.90;;;;;;5054313;28;20380;-85
2022/01/12 02:57:36;;;;;;;15.53;7.13;;;-14.40;99.90;;;;;;5052911;28;20380;-85
2022/01/12 03:00:09;;;;;;;15.70;7.40;;;-14.40;99.90;;;;;;5053233;28;20404;-84
2022/01/12 03:02:40;;;;;;;17.40;7.65;;;-14.40;99.90;;;;;;5068905;28;20388;-86
2022/01/12 03:08:02;;;;;;;18.00;8.30;;;-14.40;99.90;;;;;;5054213;28;20392;-87
2022/01/12 03:10:30;;;;;;;18.58;7.68;;;-14.40;99.90;;;;;;5069401;28;20403;-85
2022/01/12 03:12:58;;;;;;;21.25;9.15;;;-14.40;99.90;;;;;;5069591;28;20384;-85
2022/01/12 03:15:25;;;;;;;25.00;11.05;;;-14.40;99.90;;;;;;5069488;28;20485;-85
2022/01/12 03:17:53;;;;;;;23.43;11.17;;;-14.30;99.90;;;;;;5069196;28;20919;-86
2022/01/12 03:20:20;;;;;;;24.58;11.13;;;-14.30;99.90;;;;;;5069504;28;20932;-85
2022/01/12 03:22:48;;;;;;;23.40;10.80;;;-14.30;99.90;;;;;;5072420;28;20491;-85
2022/01/12 03:25:15;;;;;;;24.52;11.40;;;-14.40;99.90;;;;;;5072637;28;20406;-88
2022/01/12 03:27:43;;;;;;;28.40;12.35;;;-14.40;99.90;;;;;;5072683;28;20426;-86
2022/01/12 03:30:12;;;;;;;22.55;10.48;;;-14.40;99.90;;;;;;5072553;28;20405;-88
2022/01/12 03:32:45;;;;;;;23.73;10.80;;;-14.40;99.90;;;;;;5056075;28;20386;-85
2022/01/12 03:35:46;;;;;;;23.92;11.65;;;-14.40;99.90;;;;;;5072464;28;20394;-86
2022/01/12 03:38:22;;;;;;;22.27;10.52;;;-14.40;99.90;;;;;;5072215;28;20398;-86
2022/01/12 03:40:51;;;;;;;24.65;11.60;;;-14.30;99.90;;;;;;5072284;28;20402;-85
2022/01/12 03:43:18;;;;;;;25.00;11.98;;;-14.30;99.90;;;;;;5072089;28;20951;-85
2022/01/12 03:45:48;;;;;;;23.48;11.85;;;-14.30;99.90;;;;;;5072049;28;20410;-86
2022/01/12 03:48:16;;;;;;;27.30;12.73;;;-14.20;99.90;;;;;;5072149;28;20401;-85
2022/01/12 03:50:45;;;;;;;24.30;11.43;;;-14.30;99.90;;;;;;5055599;28;20394;-86
2022/01/12 03:53:12;;;;;;;26.23;12.52;;;-14.30;99.90;;;;;;5068250;28;20430;-84
2022/01/12 03:55:41;;;;;;;26.40;12.23;;;-14.30;99.90;;;;;;5035528;28;20993;-85
2022/01/12 03:58:12;;;;;;;27.25;12.88;;;-14.30;99.90;;;;;;5045362;28;20487;-84
2022/01/12 04:00:40;;;;;;;26.53;12.73;;;-14.30;99.90;;;;;;5040877;28;20422;-84
2022/01/12 04:03:09;;;;;;;24.57;11.97;;;-14.40;99.90;;;;;;5072030;28;20409;-86
2022/01/12 04:08:19;;;;;;;26.08;12.52;;;-14.30;99.90;;;;;;5070549;28;20382;-87
2022/01/12 04:10:53;;;;;;;25.07;12.10;;;-14.40;99.90;;;;;;5053487;28;20892;-86
2022/01/12 04:13:23;;;;;;;24.92;11.25;;;-14.40;99.90;;;;;;5071882;28;20409;-87
2022/01/12 04:16:01;;;;;;;27.40;12.32;;;-14.30;99.90;;;;;;5055394;28;20971;-86
2022/01/12 04:18:30;;;;;;;25.20;12.23;;;-14.40;99.90;;;;;;5071548;28;20428;-84
2022/01/12 04:21:01;;;;;;;25.27;12.40;;;-14.30;99.90;;;;;;5068440;28;20429;-86
2022/01/12 04:23:29;;;;;;;21.70;10.93;;;-14.20;99.90;;;;;;5070888;28;20480;-87
2022/01/12 04:25:59;;;;;;;24.67;11.55;;;-14.20;99.90;;;;;;5065388;28;20449;-86
2022/01/12 04:28:28;;;;;;;26.05;11.82;;;-14.40;99.90;;;;;;5052618;28;20387;-87
2022/01/12 04:30:57;;;;;;;25.70;12.43;;;-14.30;99.90;;;;;;5035114;28;20384;-87
2022/01/12 04:33:25;;;;;;;24.02;11.30;;;-14.30;99.90;;;;;;5051405;28;20396;-84
2022/01/12 04:35:54;;;;;;;26.17;11.60;;;-14.30;99.90;;;;;;5051135;28;20902;-87
2022/01/12 04:38:27;;;;;;;24.83;11.43;;;-14.30;99.90;;;;;;5051280;28;20400;-83
2022/01/12 04:40:55;;;;;;;23.17;11.50;;;-14.30;99.90;;;;;;5051261;28;20398;-85
2022/01/12 04:43:25;;;;;;;22.80;10.60;;;-14.10;99.90;;;;;;5069764;28;20386;-85
2022/01/12 04:50:53;;;;;;;19.27;8.50;;;-14.20;99.90;;;;;;5070976;28;20398;-85
2022/01/12 04:53:22;;;;;;;22.75;9.50;;;-14.30;99.90;;;;;;5054757;28;20393;-84
2022/01/12 04:55:51;;;;;;;22.48;9.60;;;-14.10;99.90;;;;;;5070807;28;20397;-85
2022/01/12 04:58:19;;;;;;;22.40;9.00;;;-14.00;99.90;;;;;;5070961;28;20784;-83
2022/01/12 05:00:48;;;;;;;19.88;8.82;;;-14.00;99.90;;;;;;5067829;28;20422;-85
2022/01/12 05:14:03;;;;;;;16.83;7.82;;;-13.90;99.90;;;;;;5070720;28;20466;-84
2022/01/12 05:16:31;;;;;;;18.48;8.18;;;-13.80;99.90;;;;;;5070898;28;20390;-83
2022/01/12 05:19:00;;;;;;;18.45;8.68;;;-13.90;99.90;;;;;;5070657;28;20452;-84
2022/01/12 05:21:28;;;;;;;17.80;7.78;;;-13.80;99.90;;;;;;5059188;28;20389;-86
2022/01/12 05:24:01;;;;;;;15.10;7.20;;;-13.90;99.90;;;;;;5050499;28;20483;-84
2022/01/12 05:26:29;;;;;;;15.55;7.22;;;-13.90;99.90;;;;;;5052744;28;20413;-84
2022/01/12 05:28:56;;;;;;;16.60;7.50;;;-14.10;99.90;;;;;;5064089;28;20392;-84
2022/01/12 05:31:24;;;;;;;14.45;6.22;;;-14.00;99.90;;;;;;5053826;28;20396;-83
2022/01/12 05:33:53;;;;;;;13.65;5.72;;;-14.00;99.90;;;;;;5054149;28;20505;-84
2022/01/12 05:36:22;;;;;;;14.97;6.73;;;-14.10;99.90;;;;;;5070495;28;20430;-83
2022/01/12 05:38:52;;;;;;;17.70;7.18;;;-14.00;99.90;;;;;;5054204;28;20447;-83
2022/01/12 05:41:19;;;;;;;14.45;6.38;;;-14.10;99.90;;;;;;5070339;28;20389;-85
2022/01/12 05:43:48;;;;;;;12.80;5.88;;;-14.10;99.90;;;;;;5070518;28;20394;-85
2022/01/12 05:46:18;;;;;;;15.90;6.15;;;-14.10;99.90;;;;;;5070340;28;20402;-83
2022/01/12 05:51:39;;;;;;;16.63;7.30;;;-14.10;99.90;;;;;;5086920;28;20396;-84
2022/01/12 05:54:06;;;;;;;13.85;5.80;;;-14.00;99.90;;;;;;5069785;28;20401;-83
2022/01/12 05:56:34;;;;;;;14.38;6.72;;;-13.90;99.90;;;;;;5070336;28;20393;-84
2022/01/12 05:59:02;;;;;;;14.35;6.38;;;-13.90;99.90;;;;;;5053964;28;20390;-84
2022/01/12 06:01:29;;;;;;;18.98;8.52;;;-13.90;99.90;;;;;;5052765;28;20405;-84
2022/01/12 06:03:57;;;;;;;28.50;12.80;;;-13.90;99.90;;;;;;5085259;28;20540;-86
2022/01/12 06:06:26;;;;;;;17.47;7.53;;;-13.70;99.90;;;;;;5053694;28;20398;-86
2022/01/12 06:08:53;;;;;;;13.35;6.82;;;-13.70;99.90;;;;;;5070365;28;20888;-85
2022/01/12 06:11:23;;;;;;;14.05;6.28;;;-13.70;99.90;;;;;;5053850;28;20444;-84
2022/01/12 06:13:55;;;;;;;14.48;6.43;;;-13.70;99.90;;;;;;5069571;28;20485;-86
2022/01/12 06:16:23;;;;;;;12.32;6.20;;;-13.70;99.90;;;;;;5052936;28;20398;-86
2022/01/12 06:18:52;;;;;;;14.93;6.80;;;-13.80;99.90;;;;;;5070190;28;20398;-85
2022/01/12 06:21:20;;;;;;;15.45;6.68;;;-13.80;99.90;;;;;;5070087;28;20394;-84
2022/01/12 06:24:01;;;;;;;11.90;6.10;;;-13.70;99.90;;;;;;5055276;28;20997;-88
2022/01/12 06:26:29;;;;;;;16.45;6.80;;;-13.70;99.90;;;;;;5070201;28;20409;-86
2022/01/12 06:29:40;;;;;;;17.70;7.80;;;-13.80;99.90;;;;;;5069790;28;20382;-83
2022/01/12 06:31:56;;;;;;;14.95;6.35;;;-13.70;99.90;;;;;;5070232;28;20394;-84
2022/01/12 06:34:24;;;;;;;15.73;7.00;;;-13.80;99.90;;;;;;5073561;28;20394;-85
2022/01/12 06:36:53;;;;;;;16.55;6.57;;;-13.50;99.90;;;;;;5073380;28;20876;-85
2022/01/12 06:39:23;;;;;;;12.88;6.03;;;-13.70;99.90;;;;;;5073355;28;20813;-84
2022/01/12 06:41:53;;;;;;;14.27;6.43;;;-13.80;99.90;;;;;;5056997;28;20417;-84
2022/01/12 06:44:21;;;;;;;15.65;6.90;;;-13.80;99.90;;;;;;5056796;28;20452;-85
2022/01/12 06:46:51;;;;;;;14.38;6.88;;;-13.60;99.90;;;;;;5056611;28;20795;-84
2022/01/12 06:49:19;;;;;;;16.02;7.28;;;-13.60;99.90;;;;;;5073498;28;20405;-85
2022/01/12 06:51:48;;;;;;;12.82;6.25;;;-13.70;99.90;;;;;;5073316;28;20406;-85
2022/01/12 06:54:16;;;;;;;14.88;7.03;;;-13.70;99.90;;;;;;5073228;28;20402;-84
2022/01/12 06:56:44;;;;;;;14.98;7.15;;;-13.70;99.90;;;;;;5074326;28;20876;-86
2022/01/12 06:59:11;;;;;;;20.00;9.13;;;-13.80;99.90;;;;;;5073274;28;20394;-85
2022/01/12 07:01:39;;;;;;;16.03;7.50;;;-13.70;99.90;;;;;;5073113;28;20876;-84
2022/01/12 07:04:09;;;;;;;16.20;7.37;;;-13.70;99.90;;;;;;5073195;28;20437;-85
2022/01/12 07:06:37;;;;;;;14.70;6.88;;;-13.70;99.90;;;;;;5072851;28;20408;-84
2022/01/12 07:09:05;;;;;;;17.65;8.48;;;-13.80;99.90;;;;;;5072742;28;20398;-85
2022/01/12 07:11:44;;;;;;;18.88;8.82;;;-13.60;99.90;;;;;;5067221;28;20932;-84
2022/01/12 07:14:23;;;;;;;21.15;10.43;;;-13.50;99.90;;;;;;5057275;28;20402;-83
2022/01/12 07:16:50;;;;;;;20.77;9.67;;;-13.50;99.90;;;;;;5036097;28;20396;-84
2022/01/12 07:19:18;;;;;;;20.35;9.43;;;-13.30;99.90;;;;;;5052865;28;20477;-85
2022/01/12 07:21:46;;;;;;;16.55;7.70;;;-13.40;99.90;;;;;;5052753;28;20453;-84
2022/01/12 07:24:14;;;;;;;19.50;9.35;;;-13.60;99.90;;;;;;5052435;28;20400;-85
2022/01/12 07:26:41;;;;;;;16.88;7.70;;;-13.40;99.90;;;;;;5052498;28;20408;-85
2022/01/12 07:29:11;;;;;;;20.48;8.90;;;-13.50;99.90;;;;;;5070993;28;20402;-84
2022/01/12 07:31:38;;;;;;;21.98;10.52;;;-13.60;99.90;;;;;;5060697;28;20398;-83
2022/01/12 07:34:06;;;;;;;23.55;11.25;;;-13.50;99.90;;;;;;5052429;28;20727;-84
2022/01/12 07:36:33;;;;;;;20.73;9.75;;;-13.40;99.90;;;;;;5069031;28;20426;-83
2022/01/12 07:39:01;;;;;;;19.83;8.98;;;-13.40;99.90;;;;;;5059345;28;20454;-83
2022/01/12 07:41:29;;;;;;;23.45;11.25;;;-13.60;99.90;;;;;;5068763;28;20400;-85
2022/01/12 07:43:57;;;;;;;24.65;11.93;;;-13.40;99.90;;;;;;5035790;28;20404;-84
2022/01/12 07:46:24;;;;;;;29.70;15.70;;;-13.40;99.90;;;;;;5052049;28;20487;-84
2022/01/12 07:48:52;;;;;;;30.70;17.30;;;-13.40;99.90;;;;;;5035606;28;20391;-84
2022/01/12 07:51:20;;;;;;;27.05;14.90;;;-13.30;99.90;;;;;;5049758;28;20396;-85
2022/01/12 07:53:47;;;;;;;26.00;13.82;;;-13.40;99.90;;;;;;5035304;28;20395;-84
2022/01/12 07:56:15;;;;;;;27.67;14.85;;;-13.40;99.90;;;;;;5061780;28;20416;-85
2022/01/12 07:58:42;;;;;;;26.40;13.40;;;-13.30;99.90;;;;;;5052560;28;20895;-84
2022/01/12 08:01:12;;;;;;;29.40;14.38;;;-13.10;99.90;;;;;;5065008;28;20874;-84
2022/01/12 08:03:40;;;;;;;26.88;13.98;;;-13.20;99.90;;;;;;5052078;28;20395;-84
2022/01/12 08:06:07;;;;;;;24.85;12.82;;;-13.30;99.90;;;;;;5054323;28;20420;-84
2022/01/12 08:08:35;;;;;;;31.90;16.40;;;-13.20;99.90;;;;;;5052517;28;20467;-82
2022/01/12 08:11:02;;;;;;;28.33;14.77;;;-13.20;99.90;;;;;;5051341;28;20481;-84
2022/01/12 08:13:30;;;;;;;26.67;13.15;;;-13.10;99.90;;;;;;5071427;28;20413;-85
2022/01/12 08:15:57;;;;;;;26.63;13.68;;;-13.10;99.90;;;;;;5072820;28;20496;-86
2022/01/12 08:18:25;;;;;;;26.37;15.23;;;-13.10;99.90;;;;;;5072560;28;20898;-85
2022/01/12 08:20:52;;;;;;;29.25;13.75;;;-13.00;99.90;;;;;;5071392;28;20473;-84
2022/01/12 08:23:20;;;;;;;26.17;13.38;;;-12.90;99.90;;;;;;5071192;28;20399;-84
2022/01/12 08:25:48;;;;;;;25.92;12.45;;;-12.80;99.90;;;;;;5072691;28;20495;-84
2022/01/12 08:28:15;;;;;;;26.25;11.85;;;-12.70;99.90;;;;;;5071316;28;20969;-85
2022/01/12 08:30:43;;;;;;;25.95;12.93;;;-12.70;99.90;;;;;;5072335;28;20390;-86
2022/01/12 08:33:11;;;;;;;27.58;12.43;;;-12.60;99.90;;;;;;5071202;28;20421;-84
2022/01/12 08:35:38;;;;;;;26.98;11.45;;;-12.50;99.90;;;;;;5064769;28;20404;-86
2022/01/12 08:38:06;;;;;;;27.63;12.80;;;-12.40;99.90;;;;;;5063792;28;20440;-85
2022/01/12 08:40:38;;;;;;;25.77;12.23;;;-12.40;99.90;;;;;;5071995;28;20394;-83
2022/01/12 08:43:06;;;;;;;25.40;12.13;;;-12.30;99.90;;;;;;5070193;28;20428;-84
2022/01/12 08:45:33;;;;;;;25.80;12.90;;;-12.30;99.90;;;;;;5039381;28;20396;-85
2022/01/12 08:48:01;;;;;;;26.10;11.75;;;-12.30;99.90;;;;;;5070921;28;20402;-85
2022/01/12 08:50:28;;;;;;;28.10;13.73;;;-12.20;99.90;;;;;;5087649;28;20400;-84
2022/01/12 08:52:56;;;;;;;27.27;13.10;;;-12.20;99.90;;;;;;5072042;28;20382;-85
2022/01/12 08:55:24;;;;;;;30.67;15.63;;;-12.20;99.90;;;;;;5070013;28;20382;-84
2022/01/12 08:57:52;;;;;;;32.92;16.83;;;-12.10;99.90;;;;;;5070663;28;20410;-84
2022/01/12 09:00:20;;;;;;;33.35;16.75;;;-12.00;99.90;;;;;;5070463;28;20738;-85
2022/01/12 09:02:47;;;;;;;34.22;16.98;;;-12.00;99.90;;;;;;5069202;28;20807;-85
2022/01/12 09:05:16;;;;;;;30.07;15.37;;;-11.90;99.90;;;;;;5070592;28;20481;-84
2022/01/12 09:07:44;;;;;;;28.42;14.57;;;-11.90;99.90;;;;;;5070438;28;20488;-85
2022/01/12 09:10:12;;;;;;;33.63;15.30;;;-11.90;99.90;;;;;;5070594;28;20417;-83
2022/01/12 09:12:40;;;;;;;30.88;15.68;;;-11.90;99.90;;;;;;5086958;28;20397;-84
2022/01/12 09:15:09;;;;;;;29.35;13.82;;;-11.80;99.90;;;;;;5071481;28;20401;-87
2022/01/12 09:17:37;;;;;;;28.38;14.45;;;-11.80;99.90;;;;;;5048645;28;20797;-86
2022/01/12 09:20:07;;;;;;;34.00;16.33;;;-11.80;99.90;;;;;;5066815;28;20799;-85
2022/01/12 09:22:37;;;;;;;31.30;14.65;;;-11.80;99.90;;;;;;5062600;28;20407;-85
2022/01/12 09:25:06;;;;;;;35.80;16.53;;;-11.80;99.90;;;;;;5067385;28;20785;-85
2022/01/12 09:27:34;;;;;;;30.50;15.70;;;-11.70;99.90;;;;;;5059308;28;20808;-85
2022/01/12 09:30:01;;;;;;;33.03;16.05;;;-11.70;99.90;;;;;;5061899;28;20398;-84
2022/01/12 09:32:29;;;;;;;36.63;17.17;;;-11.70;99.90;;;;;;5071558;28;20400;-85
2022/01/12 09:34:56;;;;;;;36.85;17.75;;;-11.70;99.90;;;;;;5056150;28;20388;-86
2022/01/12 09:37:24;;;;;;;33.55;15.68;;;-11.60;99.90;;;;;;5052822;28;20905;-88
2022/01/12 09:39:52;;;;;;;33.42;17.17;;;-11.50;99.90;;;;;;5070288;28;20451;-85
2022/01/12 09:42:20;;;;;;;39.70;19.65;;;-11.50;99.90;;;;;;5070526;28;20405;-85
2022/01/12 09:44:49;;;;;;;38.25;19.55;;;-11.50;99.90;;;;;;5070539;28;20991;-84
2022/01/12 09:47:17;;;;;;;38.67;19.95;;;-11.40;99.90;;;;;;5070316;28;20402;-86
2022/01/12 09:49:46;;;;;;;36.88;20.20;;;-11.40;99.90;;;;;;5070402;28;20417;-86
2022/01/12 09:52:15;;;;;;;34.90;16.98;;;-11.30;99.90;;;;;;5070251;28;20808;-86
2022/01/12 09:54:42;;;;;;;33.88;17.33;;;-11.30;99.90;;;;;;5070273;28;20969;-87
2022/01/12 09:57:10;;;;;;;36.95;18.60;;;-11.30;99.90;;;;;;5070364;28;20390;-86
2022/01/12 09:59:38;;;;;;;35.25;16.45;;;-11.30;99.90;;;;;;5053676;28;20481;-86
2022/01/12 10:02:15;;;;;;;34.55;17.67;;;-11.30;99.90;;;;;;5070159;28;20599;-84
2022/01/12 10:04:43;;;;;;;32.95;16.45;;;-11.30;99.90;;;;;;5087020;28;20448;-87
2022/01/12 10:07:11;;;;;;;33.65;16.50;;;-11.20;99.90;;;;;;5056424;28;20748;-87
2022/01/12 10:09:44;;;;;;;29.85;14.88;;;-11.20;99.90;;;;;;5072538;28;20489;-86
2022/01/12 10:12:16;;;;;;;30.00;14.55;;;-11.10;99.90;;;;;;5074140;28;20926;-86
2022/01/12 10:14:49;;;;;;;26.55;13.15;;;-11.10;99.90;;;;;;5073823;28;20398;-85
2022/01/12 10:17:19;;;;;;;25.52;12.02;;;-11.10;99.90;;;;;;5057409;28;20390;-86
2022/01/12 10:19:46;;;;;;;29.10;14.13;;;-11.10;99.90;;;;;;5074952;28;20390;-86
2022/01/12 10:22:16;;;;;;;29.27;13.05;;;-11.00;99.90;;;;;;5073810;28;20421;-86
2022/01/12 10:24:46;;;;;;;27.15;12.45;;;-11.00;99.90;;;;;;5073437;28;20449;-85
2022/01/12 10:27:16;;;;;;;30.20;13.75;;;-10.90;99.90;;;;;;5057274;28;20957;-84
2022/01/12 10:29:45;;;;;;;27.73;13.80;;;-10.80;99.90;;;;;;5073525;28;20408;-85
2022/01/12 10:32:17;;;;;;;25.02;11.73;;;-10.80;99.90;;;;;;5073597;28;20386;-85
2022/01/12 10:34:47;;;;;;;23.60;10.80;;;-10.70;99.90;;;;;;5073745;28;20386;-86
2022/01/12 10:37:26;;;;;;;21.02;9.70;;;-10.70;99.90;;;;;;5056980;28;20411;-86
2022/01/12 10:39:55;;;;;;;22.05;10.88;;;-10.50;99.90;;;;;;5073489;28;20393;-86
2022/01/12 10:42:26;;;;;;;24.27;11.02;;;-10.40;99.90;;;;;;5073710;28;20851;-87
2022/01/12 10:45:04;;;;;;;22.55;10.68;;;-10.30;99.90;;;;;;5056971;28;20746;-86
2022/01/12 10:47:32;;;;;;;19.92;9.23;;;-10.20;99.90;;;;;;5073484;28;20409;-86
2022/01/12 10:50:07;;;;;;;20.10;9.73;;;-10.10;99.90;;;;;;5073500;28;20409;-86
2022/01/12 10:52:39;;;;;;;22.30;9.83;;;-10.00;99.90;;;;;;5072564;28;20396;-86
2022/01/12 10:55:09;;;;;;;20.13;10.10;;;-9.90;99.90;;;;;;5070071;28;20836;-86
2022/01/12 10:57:39;;;;;;;20.90;9.50;;;-9.80;99.90;;;;;;5053196;28;20809;-85
2022/01/12 11:00:22;;;;;;;22.13;10.02;;;-9.70;99.90;;;;;;5068865;28;20411;-84
2022/01/12 11:02:55;;;;;;;24.52;10.77;;;-9.60;99.90;;;;;;5050841;28;20482;-86
2022/01/12 11:05:25;;;;;;;20.95;10.43;;;-9.60;99.90;;;;;;5057866;28;20404;-86
2022/01/12 11:07:53;;;;;;;20.27;10.35;;;-9.60;99.90;;;;;;5066515;28;20881;-83
2022/01/12 11:10:22;;;;;;;20.63;9.63;;;-9.60;99.90;;;;;;5069274;28;20740;-85
2022/01/12 11:12:50;;;;;;;21.80;10.50;;;-9.60;99.90;;;;;;5071072;28;20400;-86
2022/01/12 11:15:19;;;;;;;21.00;10.25;;;-9.60;99.90;;;;;;5070404;28;20395;-87
2022/01/12 11:17:50;;;;;;;23.48;10.32;;;-9.70;99.90;;;;;;5052205;28;20477;-86
2022/01/12 11:20:30;;;;;;;22.53;10.67;;;-9.60;99.90;;;;;;5071720;28;20386;-87
2022/01/12 11:23:09;;;;;;;21.60;10.35;;;-9.50;99.90;;;;;;5073912;28;20406;-86
2022/01/12 11:25:42;;;;;;;23.52;11.60;;;-9.30;99.90;;;;;;5069458;28;20392;-88
2022/01/12 11:28:23;;;;;;;24.40;11.80;;;-9.10;99.90;;;;;;5059908;28;20408;-85
2022/01/12 11:30:50;;;;;;;19.65;10.35;;;-9.00;99.90;;;;;;5069785;28;20888;-85
2022/01/12 11:33:20;;;;;;;21.45;10.40;;;-8.80;99.90;;;;;;5068915;28;20497;-87
2022/01/12 11:35:51;;;;;;;23.13;11.77;;;-8.60;99.90;;;;;;5069859;28;20884;-86
2022/01/12 11:38:28;;;;;;;21.23;10.50;;;-8.60;99.90;;;;;;5067209;28;20398;-87
2022/01/12 11:41:10;;;;;;;21.17;10.70;;;-8.70;99.90;;;;;;5069528;28;20423;-86
2022/01/12 11:43:51;;;;;;;22.20;11.32;;;-8.90;99.90;;;;;;5052427;28;20395;-85
2022/01/12 11:46:21;;;;;;;25.52;12.77;;;-9.00;99.90;;;;;;5052380;28;20398;-86
2022/01/12 11:48:51;;;;;;;23.98;13.23;;;-9.00;99.90;;;;;;5052056;28;20412;-86
2022/01/12 11:51:32;;;;;;;24.13;12.20;;;-9.10;99.90;;;;;;5052304;28;20870;-86
2022/01/12 11:54:10;;;;;;;25.70;13.40;;;-9.00;99.90;;;;;;5065310;28;20508;-85
2022/01/12 11:56:51;;;;;;;24.85;12.55;;;-8.90;99.90;;;;;;5053076;28;20429;-86
2022/01/12 11:59:20;;;;;;;24.00;12.77;;;-9.00;99.90;;;;;;5052292;28;20392;-87
2022/01/12 12:02:04;;;;;;;24.83;13.90;;;-9.00;99.90;;;;;;5035587;28;20384;-85
2022/01/12 12:04:33;;;;;;;27.73;14.38;;;-9.10;99.90;;;;;;5035555;28;20407;-87
2022/01/12 12:07:12;;;;;;;26.83;15.40;;;-9.10;99.90;;;;;;5052083;28;20442;-86
2022/01/12 12:09:52;;;;;;;24.35;12.73;;;-9.10;99.90;;;;;;5052209;28;20413;-87
2022/01/12 12:12:23;;;;;;;26.05;14.02;;;-8.90;99.90;;;;;;5035209;28;20472;-88
2022/01/12 12:14:53;;;;;;;28.65;15.05;;;-8.80;99.90;;;;;;5035663;28;20883;-87
2022/01/12 12:17:23;;;;;;;24.85;13.98;;;-8.70;99.90;;;;;;5035528;28;20801;-88
2022/01/12 12:19:51;;;;;;;24.58;13.07;;;-8.60;99.90;;;;;;5035451;28;20403;-86
2022/01/12 12:22:25;;;;;;;25.67;13.40;;;-8.50;99.90;;;;;;5051928;28;20503;-86
2022/01/12 12:24:56;;;;;;;25.95;13.85;;;-8.50;99.90;;;;;;5052245;28;20833;-86
2022/01/12 12:27:26;;;;;;;26.05;13.55;;;-8.50;99.90;;;;;;5066658;28;20406;-86
2022/01/12 12:29:54;;;;;;;25.33;13.43;;;-8.50;99.90;;;;;;5070985;28;20398;-86
2022/01/12 12:32:38;;;;;;;22.80;12.47;;;-8.30;99.90;;;;;;5071669;28;20405;-85
2022/01/12 12:35:11;;;;;;;24.57;12.67;;;-8.30;99.90;;;;;;5067696;28;20485;-86
2022/01/12 12:37:41;;;;;;;20.27;12.00;;;-8.30;99.90;;;;;;5067402;28;20483;-87
2022/01/12 12:40:36;;;;;;;24.50;13.13;;;-8.30;99.90;;;;;;5055066;28;20446;-86
2022/01/12 12:43:07;;;;;;;25.98;14.45;;;-8.50;99.90;;;;;;5042374;28;20986;-86
2022/01/12 12:45:48;;;;;;;26.63;14.07;;;-8.50;99.90;;;;;;5059758;28;20383;-85
2022/01/12 12:48:21;;;;;;;28.15;15.13;;;-8.70;99.90;;;;;;5088038;28;20402;-86
2022/01/12 12:51:08;;;;;;;27.95;15.50;;;-8.70;99.90;;;;;;5064414;28;20993;-86
2022/01/12 12:53:38;;;;;;;28.17;15.15;;;-8.70;99.90;;;;;;5065855;28;20396;-86
2022/01/12 12:56:11;;;;;;;25.67;13.93;;;-8.80;99.90;;;;;;5060799;28;20396;-86
2022/01/12 12:58:40;;;;;;;27.03;14.40;;;-8.90;99.90;;;;;;5075198;28;20419;-85
2022/01/12 13:01:12;;;;;;;28.70;15.70;;;-8.90;99.90;;;;;;5056526;28;20390;-86
2022/01/12 13:03:54;;;;;;;28.23;16.10;;;-9.00;99.90;;;;;;5062926;28;20403;-86
2022/01/12 13:06:30;;;;;;;27.65;15.20;;;-9.00;99.90;;;;;;5051079;28;20464;-86
2022/01/12 13:08:58;;;;;;;28.80;15.73;;;-9.20;99.90;;;;;;5060113;28;20402;-85
2022/01/12 13:11:37;;;;;;;28.27;15.63;;;-9.10;99.90;;;;;;5070897;28;20386;-85
2022/01/12 13:14:09;;;;;;;30.30;17.27;;;-9.20;99.90;;;;;;5068004;28;20493;-86
2022/01/12 13:16:49;;;;;;;30.95;17.38;;;-9.20;99.90;;;;;;5068736;28;20425;-87
2022/01/12 13:21:07;;;;;;;28.48;16.27;;;-9.20;99.90;;;;;;5054092;28;20394;-86
2022/01/12 13:22:36;;;;;;;30.30;16.77;;;-9.20;99.90;;;;;;5051748;28;20541;-86
2022/01/12 13:25:12;;;;;;;55.55;34.35;;;-9.10;99.90;;;;;;5067545;28;20387;-86
2022/01/12 13:27:40;;;;;;;32.22;19.70;;;-9.00;99.90;;;;;;5059875;28;20389;-86
2022/01/12 13:30:20;;;;;;;36.45;21.45;;;-9.10;99.90;;;;;;5071672;28;20671;-85
2022/01/12 13:32:56;;;;;;;31.25;19.00;;;-9.00;99.90;;;;;;5070425;28;20390;-86
2022/01/12 13:35:35;;;;;;;31.60;19.33;;;-9.00;99.90;;;;;;5070575;28;20390;-85
2022/01/12 13:38:05;;;;;;;32.60;18.60;;;-8.90;99.90;;;;;;5053986;28;20464;-85
2022/01/12 13:40:42;;;;;;;31.27;18.13;;;-8.90;99.90;;;;;;5059111;28;20407;-86
2022/01/12 13:43:11;;;;;;;29.25;16.63;;;-9.00;99.90;;;;;;5055756;28;20394;-84
2022/01/12 13:45:44;;;;;;;33.25;19.50;;;-9.20;99.90;;;;;;5073877;28;20887;-85
2022/01/12 13:48:18;;;;;;;34.22;19.13;;;-9.10;99.90;;;;;;5042155;28;20433;-85
2022/01/12 13:50:52;;;;;;;34.20;20.10;;;-9.00;99.90;;;;;;5056400;28;20496;-86
2022/01/12 13:53:37;;;;;;;30.73;18.13;;;-8.90;99.90;;;;;;5055768;28;20441;-84
2022/01/12 13:56:07;;;;;;;30.90;16.95;;;-9.10;99.90;;;;;;5074538;28;20406;-86
2022/01/12 13:58:59;;;;;;;;;;;;;;;;;;;;;
2022/01/12 14:01:35;;;;;;;34.00;20.48;;;-9.00;99.90;;;;;;5077208;28;20392;-86
2022/01/12 14:04:21;;;;;;;32.08;18.88;;;-8.90;99.90;;;;;;5071142;28;20404;-85